X  CloseMetar Aviation Weather Data     KDEC Decatur

Temperature

63°F Temperature

61°F Dewpoint

94% Humidity



Wind

 8 MPH

13 KM/H

 4 M/S

 7 KTS



20°
North North
East
Current Conditions

Mist Mist
Pressure 1014.52 (hPa) - 29.96 (in)
Visibility 2.5 (mi) - 4 (km)
Airport
Airport-code KDEC

Location Decatur 14 (mi)

Metar:
KDEC 171309Z 02007KT 2 1/2SM BR OVC002 17/16 A2996 RMK AO2 T01670156

Time: 06-17-2019 8:09